Time;durP1;ratioP1;P1;durP2;ratioP2;P2;SDS_P1;SDS_P2;PMS_P1;PMS_P2;Temp;Humidity;BMP_temperature;BMP_pressure;BME280_temperature;BME280_humidity;BME280_pressure;Samples;Min_cycle;Max_cycle;Signal;HPM_P1;HPM_P2
2022/12/08 00:01:27;;;;;;;13.07;4.88;;;5.80;99.90;;;;;;5014525;28;20145;-67
2022/12/08 00:03:54;;;;;;;11.02;5.28;;;5.90;99.90;;;;;;5015687;28;20081;-67
2022/12/08 00:09:47;;;;;;;11.73;5.25;;;5.80;99.90;;;;;;5015602;28;20054;-67
2022/12/08 00:12:15;;;;;;;8.25;4.57;;;5.80;99.90;;;;;;5014371;28;20029;-67
2022/12/08 00:14:43;;;;;;;12.27;5.47;;;5.80;99.90;;;;;;5015782;28;20022;-67
2022/12/08 00:17:10;;;;;;;8.73;5.05;;;5.80;99.90;;;;;;5015422;28;20037;-67
2022/12/08 00:19:38;;;;;;;9.98;4.82;;;5.80;99.90;;;;;;5014572;28;20021;-67
2022/12/08 00:22:05;;;;;;;17.15;6.13;;;5.80;99.90;;;;;;5014935;28;20034;-67
2022/12/08 00:24:34;;;;;;;14.73;5.35;;;5.80;99.90;;;;;;5014091;28;20022;-67
2022/12/08 00:27:00;;;;;;;12.68;5.63;;;5.80;99.90;;;;;;5015595;28;20018;-67
2022/12/08 00:29:26;;;;;;;12.27;5.45;;;5.90;99.90;;;;;;5014337;28;20093;-67
2022/12/08 00:31:52;;;;;;;13.05;6.40;;;5.90;99.90;;;;;;5014805;28;20054;-67
2022/12/08 00:34:18;;;;;;;13.35;4.78;;;5.80;99.90;;;;;;5013815;28;20076;-67
2022/12/08 00:36:43;;;;;;;11.63;4.82;;;5.80;99.90;;;;;;5014104;28;20030;-67
2022/12/08 00:39:11;;;;;;;8.85;4.88;;;5.70;99.90;;;;;;5015090;28;20112;-67
2022/12/08 00:44:21;;;;;;;7.65;4.55;;;5.60;99.90;;;;;;5015290;28;20033;-67
2022/12/08 00:46:47;;;;;;;10.95;4.93;;;5.70;99.90;;;;;;5015150;28;20018;-67
2022/12/08 00:49:14;;;;;;;9.70;4.95;;;5.70;99.90;;;;;;5014859;28;20018;-67
2022/12/08 00:51:39;;;;;;;11.60;4.15;;;5.70;99.90;;;;;;5014543;28;20067;-67
2022/12/08 00:54:06;;;;;;;13.63;4.88;;;5.70;99.90;;;;;;5013529;28;20025;-67
2022/12/08 00:56:32;;;;;;;8.18;4.53;;;5.70;99.90;;;;;;5014717;28;20065;-67
2022/12/08 00:58:57;;;;;;;10.90;5.43;;;5.70;99.90;;;;;;5014990;28;20068;-67
2022/12/08 01:01:23;;;;;;;13.00;4.80;;;5.70;99.90;;;;;;5013488;28;20025;-67
2022/12/08 01:03:49;;;;;;;12.02;4.85;;;5.70;99.90;;;;;;5015051;28;20026;-67
2022/12/08 01:06:15;;;;;;;14.18;4.82;;;5.70;99.90;;;;;;5013635;28;20033;-67
2022/12/08 01:08:41;;;;;;;15.23;5.85;;;5.70;99.90;;;;;;5014592;28;20030;-67
2022/12/08 01:11:09;;;;;;;8.95;4.93;;;5.80;99.90;;;;;;5013852;28;20112;-67
2022/12/08 01:13:34;;;;;;;12.65;4.80;;;5.70;99.90;;;;;;5015196;28;20032;-67
2022/12/08 01:16:00;;;;;;;14.80;5.35;;;5.70;99.90;;;;;;5013958;28;20116;-67
2022/12/08 01:18:27;;;;;;;11.35;4.70;;;5.70;99.90;;;;;;5014428;28;20034;-67
2022/12/08 01:20:52;;;;;;;10.63;5.07;;;5.70;99.90;;;;;;5014226;28;20034;-67
2022/12/08 01:23:18;;;;;;;11.32;4.30;;;5.60;99.90;;;;;;5014256;28;20036;-67
2022/12/08 01:25:44;;;;;;;9.30;4.07;;;5.60;99.90;;;;;;5013160;28;20057;-67
2022/12/08 01:28:09;;;;;;;14.63;4.97;;;5.60;99.90;;;;;;5012946;28;20025;-67
2022/12/08 01:30:37;;;;;;;10.90;5.20;;;5.50;99.90;;;;;;5012858;28;20076;-67
2022/12/08 01:33:03;;;;;;;11.52;5.22;;;5.50;99.90;;;;;;5014116;28;20026;-67
2022/12/08 01:35:29;;;;;;;16.15;6.05;;;5.40;99.90;;;;;;5014303;28;20037;-67
2022/12/08 01:37:54;;;;;;;12.57;4.97;;;5.30;99.90;;;;;;5013401;28;20025;-67
2022/12/08 01:40:20;;;;;;;9.10;4.90;;;5.30;99.90;;;;;;5014332;28;20037;-67
2022/12/08 01:42:45;;;;;;;12.02;5.15;;;5.30;99.90;;;;;;5014022;28;20021;-67
2022/12/08 01:45:24;;;;;;;11.05;4.78;;;5.30;99.90;;;;;;5013869;28;20036;-67
2022/12/08 01:47:55;;;;;;;13.27;4.53;;;5.30;99.90;;;;;;5014069;28;20113;-67
2022/12/08 01:50:22;;;;;;;12.13;5.03;;;5.30;99.90;;;;;;5012594;28;20029;-67
2022/12/08 01:52:56;;;;;;;8.68;4.40;;;5.40;99.90;;;;;;5013810;28;20036;-67
2022/12/08 01:55:27;;;;;;;9.15;4.88;;;5.40;99.90;;;;;;5013464;28;20132;-67
2022/12/08 01:57:58;;;;;;;14.77;5.10;;;5.40;99.90;;;;;;5012289;28;20034;-67
2022/12/08 02:00:24;;;;;;;7.82;4.80;;;5.30;99.90;;;;;;5012526;28;20036;-67
2022/12/08 02:03:00;;;;;;;12.88;4.47;;;5.40;99.90;;;;;;5013794;28;20030;-67
2022/12/08 02:05:30;;;;;;;8.98;4.72;;;5.40;99.90;;;;;;5012353;28;20107;-67
2022/12/08 02:07:57;;;;;;;10.43;4.82;;;5.50;99.90;;;;;;5013621;28;20022;-67
2022/12/08 02:10:27;;;;;;;7.63;3.97;;;5.50;99.90;;;;;;5012668;28;20030;-67
2022/12/08 02:12:56;;;;;;;11.93;4.43;;;5.50;99.90;;;;;;5012429;28;20133;-67
2022/12/08 02:15:44;;;;;;;10.90;4.55;;;5.50;99.90;;;;;;5013081;28;20036;-67
2022/12/08 02:18:26;;;;;;;10.57;4.55;;;5.40;99.90;;;;;;5012351;28;20028;-67
2022/12/08 02:20:59;;;;;;;13.20;4.43;;;5.40;99.90;;;;;;5013790;28;20100;-67
2022/12/08 02:23:40;;;;;;;11.73;4.57;;;5.40;99.90;;;;;;5013791;28;20033;-67
2022/12/08 02:26:37;;;;;;;11.57;4.32;;;5.40;99.90;;;;;;5013945;28;20029;-67
2022/12/08 02:29:20;;;;;;;11.27;4.47;;;5.30;99.90;;;;;;5013703;28;20034;-67
2022/12/08 02:32:04;;;;;;;12.60;4.40;;;5.40;99.90;;;;;;5013676;28;20022;-67
2022/12/08 02:34:39;;;;;;;10.02;4.32;;;5.30;99.90;;;;;;5014959;28;20026;-67
2022/12/08 02:37:28;;;;;;;10.77;5.15;;;5.40;99.90;;;;;;5016087;28;20044;-67
2022/12/08 02:40:20;;;;;;;11.05;4.70;;;5.40;99.90;;;;;;5016170;28;20117;-67
2022/12/08 02:43:01;;;;;;;9.95;4.68;;;5.40;99.90;;;;;;5016979;28;20026;-67
2022/12/08 02:45:53;;;;;;;7.68;4.82;;;5.40;99.90;;;;;;5016010;28;20034;-67
2022/12/08 02:48:19;;;;;;;13.55;4.18;;;5.40;99.90;;;;;;5015118;28;20034;-67
2022/12/08 02:50:44;;;;;;;10.38;4.63;;;5.40;99.90;;;;;;5017158;28;20061;-67
2022/12/08 02:53:10;;;;;;;7.95;4.82;;;5.40;99.90;;;;;;5015905;28;20069;-67
2022/12/08 02:56:07;;;;;;;10.63;5.20;;;5.40;99.90;;;;;;5015678;28;20033;-67
2022/12/08 02:58:53;;;;;;;15.95;4.65;;;5.40;99.90;;;;;;5015849;28;20033;-67
2022/12/08 03:01:54;;;;;;;11.68;4.53;;;5.40;99.90;;;;;;5016940;28;20093;-67
2022/12/08 03:04:32;;;;;;;9.98;4.28;;;5.50;99.90;;;;;;5017138;28;20092;-67
2022/12/08 03:07:11;;;;;;;11.43;4.68;;;5.40;99.90;;;;;;5015759;28;20030;-67
2022/12/08 03:09:54;;;;;;;8.45;4.57;;;5.50;99.90;;;;;;5016769;28;20101;-67
2022/12/08 03:12:33;;;;;;;9.30;4.63;;;5.50;99.90;;;;;;5015785;28;20026;-67
2022/12/08 03:15:06;;;;;;;7.78;4.15;;;5.60;99.90;;;;;;5017761;28;20073;-67
2022/12/08 03:17:33;;;;;;;7.63;4.00;;;5.40;99.90;;;;;;5015384;28;20036;-67
2022/12/08 03:20:03;;;;;;;8.70;4.35;;;5.30;99.90;;;;;;5015874;28;20145;-67
2022/12/08 03:22:29;;;;;;;9.55;4.28;;;5.30;99.90;;;;;;5016843;28;20049;-67
2022/12/08 03:24:56;;;;;;;13.93;5.05;;;5.20;99.90;;;;;;5016625;28;20101;-67
2022/12/08 03:27:28;;;;;;;9.18;4.20;;;5.30;99.90;;;;;;5016441;28;20022;-68
2022/12/08 03:29:54;;;;;;;;;;;5.20;99.90;;;;;;5016822;28;20493;-67
2022/12/08 03:32:46;;;;;;;9.43;4.65;;;5.30;99.90;;;;;;5016698;28;19909;-67
2022/12/08 03:35:15;;;;;;;9.35;3.92;;;5.30;99.90;;;;;;5016185;28;20026;-67
2022/12/08 03:37:41;;;;;;;7.75;4.03;;;5.30;99.90;;;;;;5015251;28;20026;-67
2022/12/08 03:40:11;;;;;;;10.70;4.00;;;5.30;99.90;;;;;;5015230;28;20033;-67
2022/12/08 03:42:37;;;;;;;13.52;4.47;;;5.40;99.90;;;;;;5016459;28;20073;-67
2022/12/08 03:45:03;;;;;;;9.73;4.45;;;5.40;99.90;;;;;;5014480;28;20101;-67
2022/12/08 03:47:29;;;;;;;10.52;4.57;;;5.40;99.90;;;;;;5015109;28;20496;-67
2022/12/08 03:49:55;;;;;;;8.38;3.97;;;5.40;99.90;;;;;;5016020;28;20026;-67
2022/12/08 03:52:20;;;;;;;8.98;3.95;;;5.30;99.90;;;;;;5015914;28;20022;-67
2022/12/08 03:54:46;;;;;;;10.88;4.35;;;5.30;99.90;;;;;;5014654;28;20053;-67
2022/12/08 03:57:12;;;;;;;10.25;4.20;;;5.30;99.90;;;;;;5016297;28;20037;-67
2022/12/08 03:59:37;;;;;;;7.72;3.95;;;5.30;99.90;;;;;;5015543;28;20026;-67
2022/12/08 04:02:03;;;;;;;12.55;4.15;;;5.20;99.90;;;;;;5015731;28;20044;-67
2022/12/08 04:04:28;;;;;;;8.45;4.25;;;5.20;99.90;;;;;;5014802;28;20034;-67
2022/12/08 04:06:54;;;;;;;12.52;4.75;;;5.30;99.90;;;;;;5015951;28;20211;-67
2022/12/08 04:09:19;;;;;;;9.80;4.20;;;5.30;99.90;;;;;;5014386;28;20018;-67
2022/12/08 04:11:45;;;;;;;19.05;4.40;;;5.40;99.90;;;;;;5015594;28;20504;-67
2022/12/08 04:14:10;;;;;;;10.93;3.83;;;5.40;99.90;;;;;;5014391;28;20026;-67
2022/12/08 04:16:36;;;;;;;9.30;3.97;;;5.40;99.90;;;;;;5014590;28;20026;-67
2022/12/08 04:19:02;;;;;;;9.75;3.95;;;5.40;99.90;;;;;;5014199;28;20033;-67
2022/12/08 04:21:28;;;;;;;10.77;4.75;;;5.40;99.90;;;;;;5014204;28;20488;-67
2022/12/08 04:23:54;;;;;;;7.70;3.95;;;5.30;99.90;;;;;;5014057;28;20026;-67
2022/12/08 04:26:19;;;;;;;8.57;4.43;;;5.30;99.90;;;;;;5014021;28;20026;-67
2022/12/08 04:28:45;;;;;;;11.80;4.35;;;5.40;99.90;;;;;;5015260;28;20076;-67
2022/12/08 04:31:11;;;;;;;8.60;3.88;;;5.40;99.90;;;;;;5014070;28;20037;-67
2022/12/08 04:33:36;;;;;;;7.25;3.80;;;5.40;99.90;;;;;;5015293;28;20030;-67
2022/12/08 04:36:03;;;;;;;8.30;4.45;;;5.40;99.90;;;;;;5015409;28;20083;-67
2022/12/08 04:38:29;;;;;;;10.10;4.63;;;5.40;99.90;;;;;;5014173;28;20046;-67
2022/12/08 04:40:55;;;;;;;9.70;4.47;;;5.40;99.90;;;;;;5013819;28;20065;-67
2022/12/08 04:43:20;;;;;;;13.27;4.10;;;5.40;99.90;;;;;;5014926;28;20036;-67
2022/12/08 04:45:46;;;;;;;7.78;3.25;;;5.50;99.90;;;;;;5014877;28;20030;-67
2022/12/08 04:48:12;;;;;;;10.35;5.45;;;5.50;99.90;;;;;;5013852;28;20022;-67
2022/12/08 04:50:40;;;;;;;8.63;3.38;;;5.50;99.90;;;;;;5014988;28;20018;-67
2022/12/08 04:53:06;;;;;;;9.05;3.60;;;5.40;99.90;;;;;;5013635;28;20049;-67
2022/12/08 04:55:32;;;;;;;9.88;3.50;;;5.50;99.90;;;;;;5012962;28;20496;-67
2022/12/08 04:57:57;;;;;;;7.72;3.78;;;5.60;99.90;;;;;;5013803;28;20029;-67
2022/12/08 05:00:23;;;;;;;11.48;4.32;;;5.50;99.90;;;;;;5014499;28;20030;-67
2022/12/08 05:02:48;;;;;;;6.82;3.55;;;5.50;99.90;;;;;;5015157;28;20033;-67
2022/12/08 05:05:14;;;;;;;11.38;4.32;;;5.50;99.90;;;;;;5014123;28;20033;-67
2022/12/08 05:07:39;;;;;;;8.05;3.85;;;5.50;99.90;;;;;;5013290;28;20018;-67
2022/12/08 05:10:05;;;;;;;10.18;4.10;;;5.50;99.90;;;;;;5014728;28;20093;-67
2022/12/08 05:12:31;;;;;;;9.80;3.97;;;5.50;99.90;;;;;;5013222;28;20018;-67
2022/12/08 05:14:57;;;;;;;10.23;3.85;;;5.40;99.90;;;;;;5014535;28;20051;-67
2022/12/08 05:17:23;;;;;;;9.80;3.55;;;5.50;99.90;;;;;;5013415;28;20026;-67
2022/12/08 05:19:48;;;;;;;11.27;4.03;;;5.50;99.90;;;;;;5013553;28;20030;-67
2022/12/08 05:22:14;;;;;;;10.63;4.35;;;5.60;99.90;;;;;;5014858;28;20037;-67
2022/12/08 05:24:39;;;;;;;6.28;3.97;;;5.70;99.90;;;;;;5014155;28;20018;-67
2022/12/08 05:27:05;;;;;;;10.82;4.43;;;5.60;99.90;;;;;;5012979;28;20022;-67
2022/12/08 05:29:30;;;;;;;8.73;3.42;;;5.70;99.90;;;;;;5013246;28;20050;-67
2022/12/08 05:31:56;;;;;;;11.30;4.10;;;5.60;99.90;;;;;;5014191;28;20026;-67
2022/12/08 05:34:21;;;;;;;6.45;3.50;;;5.60;99.90;;;;;;5014146;28;20028;-67
2022/12/08 05:36:47;;;;;;;9.85;4.45;;;5.60;99.90;;;;;;5014382;28;20030;-67
2022/12/08 05:39:13;;;;;;;5.72;4.13;;;5.60;99.90;;;;;;5012780;28;20057;-67
2022/12/08 05:41:40;;;;;;;8.90;4.35;;;5.60;99.90;;;;;;5012792;28;20029;-67
2022/12/08 05:44:06;;;;;;;7.53;4.07;;;5.60;99.90;;;;;;5012752;28;20026;-67
2022/12/08 05:46:31;;;;;;;9.25;4.05;;;5.60;99.90;;;;;;5012574;28;20026;-67
2022/12/08 05:48:59;;;;;;;8.60;3.80;;;5.70;99.90;;;;;;5012611;28;20029;-67
2022/12/08 05:51:24;;;;;;;7.15;3.65;;;5.70;99.90;;;;;;5013722;28;20022;-67
2022/12/08 05:53:51;;;;;;;12.60;4.15;;;5.70;99.90;;;;;;5013685;28;20018;-67
2022/12/08 05:56:18;;;;;;;10.32;3.97;;;5.70;99.90;;;;;;5013948;28;20123;-68
2022/12/08 05:58:44;;;;;;;7.07;3.72;;;5.70;99.90;;;;;;5013666;28;20034;-68
2022/12/08 06:01:24;;;;;;;7.10;4.00;;;5.60;99.90;;;;;;5012840;28;20079;-68
2022/12/08 06:03:51;;;;;;;6.70;4.10;;;5.60;99.90;;;;;;5013733;28;20523;-68
2022/12/08 06:06:17;;;;;;;7.20;3.60;;;5.60;99.90;;;;;;5012603;28;20037;-68
2022/12/08 06:08:42;;;;;;;10.18;3.92;;;5.60;99.90;;;;;;5012789;28;20022;-68
2022/12/08 06:11:08;;;;;;;7.50;3.65;;;5.70;99.90;;;;;;5013906;28;20489;-68
2022/12/08 06:13:34;;;;;;;6.55;3.58;;;5.70;99.90;;;;;;5013858;28;20029;-68
2022/12/08 06:16:04;;;;;;;6.45;3.30;;;5.80;99.90;;;;;;5012369;28;20030;-68
2022/12/08 06:18:30;;;;;;;8.18;3.13;;;5.70;99.90;;;;;;5012699;28;20032;-69
2022/12/08 06:21:07;;;;;;;8.32;3.58;;;5.70;99.90;;;;;;5013586;28;20025;-69
2022/12/08 06:23:33;;;;;;;9.98;4.07;;;5.60;99.90;;;;;;5013633;28;20080;-69
2022/12/08 06:26:03;;;;;;;7.85;3.17;;;5.60;99.90;;;;;;5013523;28;20029;-69
2022/12/08 06:28:30;;;;;;;5.88;3.15;;;5.60;99.90;;;;;;5012487;28;20026;-69
2022/12/08 06:30:55;;;;;;;6.55;3.50;;;5.50;99.90;;;;;;5012607;28;20022;-69
2022/12/08 06:33:21;;;;;;;6.60;2.90;;;5.60;99.90;;;;;;5013702;28;20097;-69
2022/12/08 06:39:09;;;;;;;7.30;3.30;;;5.50;99.90;;;;;;5013757;28;20024;-69
2022/12/08 06:42:42;;;;;;;7.88;3.80;;;5.40;99.90;;;;;;5012173;28;20276;-69
2022/12/08 06:44:20;;;;;;;4.70;3.20;;;5.50;99.90;;;;;;5013225;28;20026;-69
2022/12/08 06:46:46;;;;;;;7.45;3.72;;;5.60;99.90;;;;;;5012316;28;20033;-69
2022/12/08 06:49:11;;;;;;;5.95;3.25;;;5.60;99.90;;;;;;5012142;28;20080;-69
2022/12/08 06:51:37;;;;;;;7.25;3.70;;;5.50;99.90;;;;;;5013008;28;20458;-69
2022/12/08 06:54:03;;;;;;;7.95;3.45;;;5.60;99.90;;;;;;5012065;28;20076;-69
2022/12/08 06:56:29;;;;;;;5.90;3.35;;;5.60;99.90;;;;;;5012035;28;20038;-69
2022/12/08 06:58:54;;;;;;;6.07;2.95;;;5.70;99.90;;;;;;5013315;28;20022;-69
2022/12/08 07:01:20;;;;;;;8.23;3.65;;;5.60;99.90;;;;;;5013201;28;20029;-69
2022/12/08 07:03:46;;;;;;;9.57;3.83;;;5.60;99.90;;;;;;5013443;28;20462;-69
2022/12/08 07:06:24;;;;;;;9.45;3.50;;;5.60;99.90;;;;;;5012366;28;20036;-69
2022/12/08 07:08:49;;;;;;;6.07;3.30;;;5.60;99.90;;;;;;5012516;28;20076;-69
2022/12/08 07:11:15;;;;;;;10.38;4.05;;;5.50;99.90;;;;;;5013188;28;20026;-69
2022/12/08 07:13:41;;;;;;;7.75;3.67;;;5.60;99.90;;;;;;5013334;28;20015;-69
2022/12/08 07:16:08;;;;;;;8.05;3.88;;;5.60;99.90;;;;;;5011842;28;20040;-69
2022/12/08 07:18:35;;;;;;;10.13;4.03;;;5.50;99.90;;;;;;5012338;28;20030;-69
2022/12/08 07:21:05;;;;;;;7.85;3.95;;;5.30;99.90;;;;;;5015271;28;20478;-69
2022/12/08 07:23:31;;;;;;;9.52;3.50;;;5.20;99.90;;;;;;5015640;28;20033;-69
2022/12/08 07:26:04;;;;;;;8.52;4.30;;;5.20;99.90;;;;;;5015371;28;20030;-68
2022/12/08 07:28:31;;;;;;;7.18;3.90;;;5.20;99.90;;;;;;5015783;28;20096;-69
2022/12/08 07:30:57;;;;;;;8.15;4.00;;;5.20;99.90;;;;;;5015935;28;20026;-69
2022/12/08 07:33:23;;;;;;;6.15;3.45;;;5.20;99.90;;;;;;5015271;28;20592;-69
2022/12/08 07:36:01;;;;;;;10.13;3.75;;;5.20;99.90;;;;;;5016556;28;20054;-69
2022/12/08 07:38:27;;;;;;;8.98;4.32;;;5.20;99.90;;;;;;5016758;28;20041;-69
2022/12/08 07:40:53;;;;;;;8.70;3.88;;;5.30;99.90;;;;;;5016255;28;20057;-69
2022/12/08 07:43:20;;;;;;;7.57;3.20;;;5.30;99.90;;;;;;5016857;28;20036;-69
2022/12/08 07:45:46;;;;;;;7.30;3.75;;;5.40;99.90;;;;;;5016493;28;20026;-69
2022/12/08 07:48:11;;;;;;;8.63;4.10;;;5.50;99.90;;;;;;5015827;28;20022;-69
2022/12/08 07:50:37;;;;;;;8.40;3.75;;;5.50;99.90;;;;;;5014954;28;20017;-69
2022/12/08 07:53:03;;;;;;;7.03;3.40;;;5.50;99.90;;;;;;5014866;28;20148;-69
2022/12/08 07:55:28;;;;;;;7.80;3.67;;;5.50;99.90;;;;;;5016122;28;20233;-69
2022/12/08 07:57:54;;;;;;;11.50;4.28;;;5.50;99.90;;;;;;5015873;28;20078;-69
2022/12/08 08:00:20;;;;;;;8.15;3.38;;;5.60;99.90;;;;;;5016036;28;20026;-69
2022/12/08 08:02:45;;;;;;;8.10;3.83;;;5.50;99.90;;;;;;5015898;28;20022;-69
2022/12/08 08:05:11;;;;;;;9.90;4.05;;;5.50;99.90;;;;;;5015642;28;20032;-69
2022/12/08 08:07:38;;;;;;;10.10;4.13;;;5.50;99.90;;;;;;5015689;28;20096;-69
2022/12/08 08:10:05;;;;;;;7.18;3.55;;;5.50;99.90;;;;;;5014451;28;20504;-69
2022/12/08 08:12:31;;;;;;;9.02;4.13;;;5.50;99.90;;;;;;5015335;28;20029;-69
2022/12/08 08:14:57;;;;;;;9.55;3.33;;;5.60;99.90;;;;;;5015532;28;20026;-69
2022/12/08 08:17:22;;;;;;;10.18;4.57;;;5.60;99.90;;;;;;5014378;28;20022;-69
2022/12/08 08:19:48;;;;;;;5.82;3.40;;;5.60;99.90;;;;;;5015586;28;20084;-69
2022/12/08 08:22:14;;;;;;;8.05;3.88;;;5.60;99.90;;;;;;5014227;28;20030;-69
2022/12/08 08:24:39;;;;;;;11.60;3.78;;;5.50;99.90;;;;;;5014195;28;20053;-69
2022/12/08 08:27:05;;;;;;;5.93;3.40;;;5.60;99.90;;;;;;5014197;28;20025;-69
2022/12/08 08:29:30;;;;;;;8.30;3.92;;;5.60;99.90;;;;;;5015564;28;20026;-69
2022/12/08 08:31:56;;;;;;;11.25;3.33;;;5.50;99.90;;;;;;5013487;28;20088;-69
2022/12/08 08:34:21;;;;;;;18.90;4.60;;;5.50;99.90;;;;;;5015204;28;20369;-69
2022/12/08 08:36:47;;;;;;;8.80;3.72;;;5.50;99.90;;;;;;5014293;28;20049;-69
2022/12/08 08:39:12;;;;;;;9.90;4.47;;;5.50;99.90;;;;;;5014534;28;20072;-69
2022/12/08 08:41:38;;;;;;;8.95;3.92;;;5.50;99.90;;;;;;5013934;28;20093;-69
2022/12/08 08:44:04;;;;;;;6.90;3.63;;;5.40;99.90;;;;;;5013838;28;20032;-68
2022/12/08 08:46:30;;;;;;;8.48;3.72;;;5.30;99.90;;;;;;5014761;28;20092;-68
2022/12/08 08:48:55;;;;;;;7.25;3.65;;;5.30;99.90;;;;;;5013904;28;20022;-68
2022/12/08 08:51:21;;;;;;;10.98;3.80;;;5.40;99.90;;;;;;5014771;28;20018;-68
2022/12/08 08:53:46;;;;;;;9.57;3.80;;;5.40;99.90;;;;;;5013856;28;20025;-68
2022/12/08 08:56:15;;;;;;;8.40;4.35;;;5.50;99.90;;;;;;5013449;28;20033;-68
2022/12/08 08:58:41;;;;;;;7.28;4.13;;;5.40;99.90;;;;;;5014664;28;20034;-68
2022/12/08 09:01:07;;;;;;;10.75;3.92;;;5.50;99.90;;;;;;5014668;28;20050;-68
2022/12/08 09:03:33;;;;;;;9.52;3.97;;;5.50;99.90;;;;;;5013424;28;20029;-68
2022/12/08 09:05:58;;;;;;;14.15;3.78;;;5.50;99.90;;;;;;5014478;28;20033;-68
2022/12/08 09:08:24;;;;;;;12.02;4.47;;;5.50;99.90;;;;;;5013319;28;20108;-68
2022/12/08 09:10:49;;;;;;;7.85;3.75;;;5.60;99.90;;;;;;5013369;28;20053;-68
2022/12/08 09:13:15;;;;;;;8.40;3.72;;;5.70;99.90;;;;;;5013575;28;20014;-69
2022/12/08 09:15:41;;;;;;;16.48;5.38;;;5.70;99.90;;;;;;5014320;28;20148;-68
2022/12/08 09:18:06;;;;;;;8.88;4.18;;;5.70;99.90;;;;;;5013187;28;20119;-68
2022/12/08 09:20:33;;;;;;;10.43;4.25;;;5.80;99.90;;;;;;5014697;28;20061;-68
2022/12/08 09:22:59;;;;;;;8.93;4.43;;;5.70;99.90;;;;;;5014588;28;20076;-69
2022/12/08 09:25:25;;;;;;;7.90;4.18;;;5.70;99.90;;;;;;5013114;28;20151;-68
2022/12/08 09:27:50;;;;;;;9.65;4.60;;;5.80;99.90;;;;;;5014152;28;20026;-68
2022/12/08 09:30:16;;;;;;;7.55;4.10;;;5.70;99.90;;;;;;5014209;28;20022;-69
2022/12/08 09:32:41;;;;;;;8.75;3.70;;;5.70;99.90;;;;;;5014202;28;20033;-68
2022/12/08 09:35:07;;;;;;;8.63;3.70;;;5.60;99.90;;;;;;5012891;28;20079;-67
2022/12/08 09:37:33;;;;;;;10.60;4.10;;;5.50;99.90;;;;;;5014073;28;20030;-68
2022/12/08 09:39:58;;;;;;;11.07;4.43;;;5.60;99.90;;;;;;5013711;28;20022;-68
2022/12/08 09:42:45;;;;;;;9.52;4.07;;;5.60;99.90;;;;;;5012823;28;20029;-68
2022/12/08 09:45:14;;;;;;;8.70;3.17;;;5.60;99.90;;;;;;5012950;28;20507;-68
2022/12/08 09:48:03;;;;;;;10.50;3.88;;;5.60;99.90;;;;;;5012998;28;20022;-69
2022/12/08 09:50:51;;;;;;;9.25;3.97;;;5.70;99.90;;;;;;5013742;28;20026;-69
2022/12/08 09:53:35;;;;;;;8.98;3.65;;;5.70;99.90;;;;;;5013751;28;20061;-69
2022/12/08 09:56:15;;;;;;;10.25;3.63;;;5.70;99.90;;;;;;5013858;28;20026;-69
2022/12/08 09:58:46;;;;;;;9.73;4.13;;;5.70;99.90;;;;;;5014020;28;20025;-69
2022/12/08 10:01:13;;;;;;;9.02;4.07;;;5.70;99.90;;;;;;5013637;28;20050;-69
2022/12/08 10:03:39;;;;;;;6.40;3.47;;;5.80;99.90;;;;;;5012458;28;20053;-69
2022/12/08 10:06:44;;;;;;;6.68;3.47;;;5.80;99.90;;;;;;5013871;28;20034;-69
2022/12/08 10:09:36;;;;;;;9.45;3.60;;;5.80;99.90;;;;;;5001935;28;20092;-69
2022/12/08 10:12:32;;;;;;;7.05;3.63;;;5.80;99.90;;;;;;5013700;28;20022;-69
2022/12/08 10:15:39;;;;;;;7.25;3.70;;;5.80;99.90;;;;;;5013560;28;20477;-69
2022/12/08 10:18:27;;;;;;;7.10;3.72;;;5.70;99.90;;;;;;5013653;28;20029;-69
2022/12/08 10:20:56;;;;;;;8.10;3.03;;;5.70;99.90;;;;;;5012351;28;20026;-69
2022/12/08 10:23:35;;;;;;;6.60;3.78;;;5.70;99.90;;;;;;5012259;28;20022;-68
2022/12/08 10:26:03;;;;;;;9.43;3.90;;;5.80;99.90;;;;;;5013691;28;20393;-68
2022/12/08 10:28:30;;;;;;;6.78;3.40;;;5.80;99.90;;;;;;5013105;28;20079;-68
2022/12/08 10:30:56;;;;;;;14.15;3.13;;;5.70;99.90;;;;;;5013393;28;20127;-68
2022/12/08 10:33:22;;;;;;;5.82;3.10;;;5.60;99.90;;;;;;5013489;28;20054;-68
2022/12/08 10:35:55;;;;;;;8.00;3.33;;;5.60;99.90;;;;;;5012862;28;20076;-67
2022/12/08 10:38:30;;;;;;;7.03;3.53;;;5.60;99.90;;;;;;5013388;28;20029;-68
2022/12/08 10:41:10;;;;;;;10.13;4.35;;;5.60;99.90;;;;;;5012123;28;20025;-68
2022/12/08 10:43:48;;;;;;;7.90;3.90;;;5.70;99.90;;;;;;5013290;28;20025;-67
2022/12/08 10:46:25;;;;;;;14.45;3.95;;;5.80;99.90;;;;;;5011812;28;20295;-68
2022/12/08 10:48:55;;;;;;;6.32;3.22;;;5.70;99.90;;;;;;5012159;28;20022;-67
2022/12/08 10:51:23;;;;;;;10.18;4.00;;;5.70;99.90;;;;;;5013251;28;20048;-67
2022/12/08 10:53:49;;;;;;;8.93;2.92;;;5.70;99.90;;;;;;5013277;28;20045;-67
2022/12/08 10:56:15;;;;;;;12.75;3.30;;;5.70;99.90;;;;;;5017024;28;20401;-67
2022/12/08 10:58:44;;;;;;;9.70;3.80;;;5.80;99.90;;;;;;5016596;28;20030;-67
2022/12/08 11:01:20;;;;;;;9.73;3.63;;;5.90;99.90;;;;;;5015741;28;20026;-68
2022/12/08 11:03:48;;;;;;;8.18;3.45;;;6.00;99.90;;;;;;5016915;28;20052;-67
2022/12/08 11:06:18;;;;;;;6.28;3.20;;;5.90;99.90;;;;;;5015526;28;20025;-68
2022/12/08 11:08:53;;;;;;;10.02;3.85;;;5.90;99.90;;;;;;5016851;28;20053;-68
2022/12/08 11:11:21;;;;;;;4.95;3.13;;;5.90;99.90;;;;;;5015554;28;20555;-68
2022/12/08 11:13:49;;;;;;;8.52;3.83;;;6.00;99.90;;;;;;5016821;28;20018;-68
2022/12/08 11:16:16;;;;;;;6.80;3.60;;;5.90;99.90;;;;;;5016970;28;20030;-68
2022/12/08 11:18:48;;;;;;;6.68;3.30;;;5.90;99.90;;;;;;5015746;28;20036;-68
2022/12/08 11:21:17;;;;;;;6.82;3.85;;;5.90;99.90;;;;;;5016906;28;20065;-67
2022/12/08 11:23:48;;;;;;;9.80;3.92;;;5.80;99.90;;;;;;5015916;28;20040;-68
2022/12/08 11:26:27;;;;;;;9.77;3.22;;;5.80;99.90;;;;;;5016577;28;20030;-68
2022/12/08 11:28:55;;;;;;;6.93;3.08;;;5.90;99.90;;;;;;5016511;28;20020;-68
2022/12/08 11:31:31;;;;;;;10.32;3.80;;;5.90;99.90;;;;;;5015093;28;20025;-68
2022/12/08 11:33:57;;;;;;;7.60;3.70;;;5.80;99.90;;;;;;5015169;28;20022;-67
2022/12/08 11:36:25;;;;;;;9.35;3.38;;;5.80;99.90;;;;;;5016224;28;20033;-68
2022/12/08 11:38:58;;;;;;;5.35;2.97;;;5.80;99.90;;;;;;5015637;28;20033;-68
2022/12/08 11:41:34;;;;;;;8.90;3.55;;;5.80;99.90;;;;;;5015574;28;20033;-67
2022/12/08 11:44:30;;;;;;;6.03;2.85;;;5.80;99.90;;;;;;5015278;28;20060;-68
2022/12/08 11:47:01;;;;;;;4.97;2.80;;;5.80;99.90;;;;;;5015656;28;20033;-67
2022/12/08 11:49:34;;;;;;;10.35;3.20;;;5.80;99.90;;;;;;5014890;28;20117;-68
2022/12/08 11:52:07;;;;;;;8.10;4.03;;;5.80;99.90;;;;;;5014717;28;20116;-67
2022/12/08 11:54:39;;;;;;;4.50;2.45;;;5.80;99.90;;;;;;5016083;28;20040;-67
2022/12/08 11:57:09;;;;;;;8.23;3.53;;;5.80;99.90;;;;;;5032210;23;20413;-69
2022/12/08 11:59:38;;;;;;;9.63;4.35;;;5.80;99.90;;;;;;4995027;28;20030;-69
2022/12/08 12:02:10;;;;;;;8.48;3.00;;;5.80;99.90;;;;;;4995074;28;20030;-69
2022/12/08 12:04:49;;;;;;;6.00;3.10;;;5.90;99.90;;;;;;4995909;28;20378;-69
2022/12/08 12:07:32;;;;;;;7.13;3.30;;;5.90;99.90;;;;;;4996315;28;20076;-69
2022/12/08 12:10:24;;;;;;;8.52;3.45;;;5.90;99.90;;;;;;4995028;28;20120;-69
2022/12/08 12:12:58;;;;;;;;;;;6.00;99.90;;;;;;4975874;28;20031;-69
2022/12/08 12:15:30;;;;;;;5.00;3.05;;;6.00;99.90;;;;;;4975638;28;19952;-69
2022/12/08 12:18:21;;;;;;;6.93;2.83;;;6.10;99.90;;;;;;4976856;28;20019;-69
2022/12/08 12:21:10;;;;;;;10.77;3.92;;;6.10;99.90;;;;;;4975443;28;20054;-69
2022/12/08 12:23:41;;;;;;;11.02;3.58;;;6.00;99.90;;;;;;4976886;28;20051;-70
2022/12/08 12:26:15;;;;;;;6.72;3.60;;;6.10;99.90;;;;;;4976797;28;20078;-70
2022/12/08 12:28:48;;;;;;;6.88;3.08;;;6.20;99.90;;;;;;4975292;28;20027;-70
2022/12/08 12:31:48;;;;;;;7.75;3.72;;;6.20;99.90;;;;;;4976413;28;20018;-70
2022/12/08 12:34:20;;;;;;;7.03;2.97;;;6.10;99.90;;;;;;4936000;29;20039;-70
2022/12/08 12:36:53;;;;;;;5.50;3.08;;;6.10;99.90;;;;;;4919796;29;20039;-70
2022/12/08 12:39:23;;;;;;;11.05;2.88;;;6.10;99.90;;;;;;4920391;29;20070;-70
2022/12/08 12:41:51;;;;;;;8.13;3.00;;;6.20;99.90;;;;;;4935613;29;20059;-70
2022/12/08 12:44:22;;;;;;;6.32;2.72;;;6.20;99.90;;;;;;4919792;29;20074;-70
2022/12/08 12:46:48;;;;;;;6.18;2.83;;;6.10;99.90;;;;;;4935536;29;20083;-70
2022/12/08 12:49:49;;;;;;;5.72;2.45;;;6.00;99.90;;;;;;4935800;29;20027;-70
2022/12/08 12:52:15;;;;;;;7.07;3.00;;;6.00;99.90;;;;;;4863587;29;20031;-70
2022/12/08 12:54:44;;;;;;;5.35;2.83;;;6.10;99.90;;;;;;4879030;29;20033;-70
2022/12/08 12:57:09;;;;;;;10.13;3.20;;;6.00;99.90;;;;;;4878771;29;20124;-70
2022/12/08 12:59:45;;;;;;;8.90;3.55;;;6.00;99.90;;;;;;4878733;29;20133;-70
2022/12/08 13:02:31;;;;;;;7.65;2.80;;;5.90;99.90;;;;;;4878763;29;20085;-69
2022/12/08 13:04:59;;;;;;;6.28;3.63;;;5.90;99.90;;;;;;4863333;29;20048;-69
2022/12/08 13:07:47;;;;;;;5.63;2.65;;;5.90;99.90;;;;;;4863019;29;20033;-69
2022/12/08 13:10:24;;;;;;;7.40;2.88;;;6.00;99.90;;;;;;4900826;29;20068;-69
2022/12/08 13:13:04;;;;;;;6.72;3.35;;;5.80;99.90;;;;;;4919332;29;20035;-69
2022/12/08 13:15:47;;;;;;;6.45;2.72;;;5.70;99.90;;;;;;4919232;29;20031;-69
2022/12/08 13:18:23;;;;;;;6.70;3.58;;;5.70;99.90;;;;;;4934667;29;20035;-69